Time;durP1;ratioP1;P1;durP2;ratioP2;P2;SDS_P1;SDS_P2;PMS_P1;PMS_P2;Temp;Humidity;BMP_temperature;BMP_pressure;BME280_temperature;BME280_humidity;BME280_pressure;Samples;Min_cycle;Max_cycle;Signal;HPM_P1;HPM_P2
2023/05/10 00:00:57;;;;;;;4.25;1.52;;;;;;;12.41;100.00;100115.53;5123972;28;20054;-91
2023/05/10 00:03:25;;;;;;;5.40;1.80;;;;;;;11.95;100.00;100050.66;5121221;28;20386;-91
2023/05/10 00:05:54;;;;;;;3.50;1.40;;;;;;;11.98;100.00;100073.28;5118161;28;20428;-90
2023/05/10 00:08:25;;;;;;;6.32;1.90;;;;;;;11.84;100.00;100059.06;5105337;28;20499;-91
2023/05/10 00:10:53;;;;;;;6.25;1.92;;;;;;;11.83;100.00;100044.28;5118218;28;20529;-90
2023/05/10 00:13:21;;;;;;;6.43;2.22;;;;;;;11.91;100.00;100084.09;5122570;28;20058;-90
2023/05/10 00:15:48;;;;;;;5.82;1.80;;;;;;;12.06;100.00;100077.19;5109223;28;20052;-90
2023/05/10 00:18:16;;;;;;;5.90;1.95;;;;;;;11.77;100.00;100052.47;5123907;28;20103;-91
2023/05/10 00:20:56;;;;;;;4.63;1.75;;;;;;;11.92;100.00;100062.19;5108274;28;20044;-91
2023/05/10 00:23:24;;;;;;;9.45;2.42;;;;;;;12.08;100.00;100098.94;5118534;28;20047;-89
2023/05/10 00:25:52;;;;;;;4.72;1.80;;;;;;;12.03;100.00;100063.38;5118739;28;20052;-91
2023/05/10 00:28:33;;;;;;;4.18;1.67;;;;;;;12.09;100.00;100066.53;5118527;28;20474;-91
2023/05/10 00:31:14;;;;;;;5.57;1.83;;;;;;;12.15;100.00;100084.53;5124788;28;20056;-90
2023/05/10 00:33:41;;;;;;;3.88;1.30;;;;;;;11.85;100.00;100046.84;5122668;28;20058;-89
2023/05/10 00:36:22;;;;;;;5.88;2.13;;;;;;;12.21;100.00;100100.91;5121244;28;20055;-91
2023/05/10 00:38:59;;;;;;;5.70;2.00;;;;;;;12.18;100.00;100061.69;5126120;28;20051;-90
2023/05/10 00:41:32;;;;;;;5.63;1.92;;;;;;;12.05;100.00;100054.47;5112829;28;20048;-91
2023/05/10 00:44:08;;;;;;;5.07;1.90;;;;;;;12.05;100.00;100067.59;5120332;28;20050;-91
2023/05/10 00:46:49;;;;;;;4.22;1.50;;;;;;;12.33;100.00;100108.09;5104278;28;20101;-89
2023/05/10 00:49:20;;;;;;;4.07;1.48;;;;;;;12.36;100.00;100094.81;5111758;28;20056;-90
2023/05/10 00:52:02;;;;;;;5.85;1.83;;;;;;;12.14;100.00;100064.47;5124261;28;20059;-91
2023/05/10 00:54:43;;;;;;;4.82;1.80;;;;;;;12.17;100.00;100065.25;5118720;28;20058;-91
2023/05/10 00:57:24;;;;;;;6.40;1.67;;;;;;;12.21;100.00;100061.53;5124466;28;20050;-92
2023/05/10 00:59:55;;;;;;;4.45;1.63;;;;;;;12.22;100.00;100063.22;5124574;28;20052;-90
2023/05/10 01:02:36;;;;;;;4.45;1.70;;;;;;;11.95;100.00;100022.66;5122755;28;20107;-91
2023/05/10 01:05:16;;;;;;;4.47;1.70;;;;;;;12.33;100.00;100097.59;5123146;28;20051;-88
2023/05/10 01:07:44;;;;;;;4.82;1.55;;;;;;;12.29;100.00;100065.41;5124540;28;20155;-90
2023/05/10 01:10:14;;;;;;;3.97;1.58;;;;;;;12.10;100.00;100043.75;5122618;28;20055;-90
2023/05/10 01:12:43;;;;;;;4.97;1.85;;;;;;;12.27;100.00;100053.28;5120140;28;20055;-90
2023/05/10 01:15:12;;;;;;;5.78;1.95;;;;;;;12.20;100.00;100049.31;5112037;28;20050;-91
2023/05/10 01:17:42;;;;;;;6.38;2.22;;;;;;;11.98;100.00;100020.81;5114451;28;20059;-89
2023/05/10 01:20:10;;;;;;;7.10;2.65;;;;;;;12.18;100.00;100061.69;5106705;28;20101;-88
2023/05/10 01:23:16;;;;;;;8.52;3.13;;;;;;;12.01;100.00;100013.63;5131982;27;20056;-89
2023/05/10 01:26:31;;;;;;;6.93;2.50;;;;;;;12.47;100.00;100081.94;5108389;28;20056;-89
2023/05/10 01:29:41;;;;;;;9.15;3.55;;;;;;;12.34;100.00;100089.63;5096826;28;20052;-90
2023/05/10 01:32:13;;;;;;;9.45;2.47;;;;;;;12.30;100.00;100082.00;5081774;28;20042;-90
2023/05/10 01:35:03;;;;;;;6.80;2.47;;;;;;;12.24;100.00;100085.81;5118658;28;20043;-90
2023/05/10 01:37:45;;;;;;;7.20;2.40;;;;;;;12.11;100.00;100059.41;5121609;28;20158;-90
2023/05/10 01:40:33;;;;;;;7.63;3.03;;;;;;;12.10;100.00;100041.13;5122218;28;20115;-90
2023/05/10 01:43:03;;;;;;;7.10;2.40;;;;;;;12.15;100.00;100066.19;5120858;28;20050;-89
2023/05/10 01:45:33;;;;;;;6.93;2.45;;;;;;;12.25;100.00;100086.66;5121469;28;20040;-90
2023/05/10 01:48:13;;;;;;;11.25;4.03;;;;;;;12.17;100.00;100092.34;5122265;28;20052;-90
2023/05/10 01:50:56;;;;;;;11.90;3.63;;;;;;;11.82;100.00;100070.59;5111965;28;20106;-90
2023/05/10 01:53:37;;;;;;;10.40;3.53;;;;;;;11.99;100.00;100095.94;5118704;28;20023;-91
2023/05/10 01:56:08;;;;;;;9.23;3.72;;;;;;;11.70;100.00;100053.72;5125333;28;20469;-91
2023/05/10 01:58:51;;;;;;;14.05;4.95;;;;;;;11.69;100.00;100059.91;5124822;28;20051;-90
2023/05/10 02:01:34;;;;;;;9.40;3.70;;;;;;;11.71;100.00;100065.91;5125440;28;20051;-92
2023/05/10 02:04:17;;;;;;;14.43;3.83;;;;;;;11.99;100.00;100112.56;5124657;28;20059;-92
2023/05/10 02:06:58;;;;;;;10.45;4.22;;;;;;;11.92;100.00;100072.69;5125208;28;20067;-91
2023/05/10 02:09:39;;;;;;;11.20;3.83;;;;;;;11.76;100.00;100059.50;5106852;28;20075;-91
2023/05/10 02:12:22;;;;;;;8.55;3.13;;;;;;;11.76;100.00;100058.66;5133955;27;20051;-92
2023/05/10 02:15:06;;;;;;;10.73;3.38;;;;;;;11.88;100.00;100084.25;5106043;28;20052;-91
2023/05/10 02:17:48;;;;;;;8.55;3.33;;;;;;;11.69;100.00;100055.50;5136633;27;20047;-92
2023/05/10 02:20:31;;;;;;;11.98;4.07;;;;;;;11.53;100.00;100026.63;5123667;28;20052;-92
2023/05/10 02:23:13;;;;;;;11.32;4.32;;;;;;;11.96;100.00;100089.94;5123635;28;20103;-92
2023/05/10 02:25:56;;;;;;;9.88;3.97;;;;;;;11.72;100.00;100064.97;5124440;28;20051;-93
2023/05/10 02:28:29;;;;;;;10.73;4.18;;;;;;;11.92;100.00;100090.19;5121906;28;20097;-92
2023/05/10 02:30:57;;;;;;;9.80;3.65;;;;;;;11.74;100.00;100058.75;5116516;28;20517;-92
2023/05/10 02:33:42;;;;;;;11.52;4.70;;;;;;;11.99;100.00;100093.31;5115681;28;20063;-92
2023/05/10 02:36:24;;;;;;;14.82;4.93;;;;;;;11.71;100.00;100084.28;5111031;28;20044;-92
2023/05/10 02:39:09;;;;;;;14.73;4.85;;;;;;;11.52;100.00;100059.00;5119324;28;20052;-93
2023/05/10 02:41:52;;;;;;;17.27;5.28;;;;;;;11.57;100.00;100061.41;5121662;28;20054;-93
2023/05/10 02:44:36;;;;;;;13.52;5.45;;;;;;;11.50;100.00;100044.31;5124186;28;20047;-92
2023/05/10 02:47:18;;;;;;;9.32;3.78;;;;;;;11.64;100.00;100067.19;5123514;28;20058;-93
2023/05/10 02:49:46;;;;;;;9.90;4.30;;;;;;;11.75;100.00;100065.66;5124303;28;20043;-92
2023/05/10 02:52:36;;;;;;;10.85;3.80;;;;;;;11.74;100.00;100048.25;5113156;28;20377;-92
2023/05/10 02:55:21;;;;;;;9.43;3.42;;;;;;;11.75;100.00;100059.56;5147989;27;20048;-91
2023/05/10 02:58:02;;;;;;;9.73;4.10;;;;;;;12.05;100.00;100108.75;5119892;28;20050;-91
2023/05/10 03:00:43;;;;;;;9.55;4.10;;;;;;;12.10;100.00;100110.19;5122586;28;20397;-92
2023/05/10 03:03:23;;;;;;;10.80;4.18;;;;;;;11.89;100.00;100079.84;5123019;28;20083;-92
2023/05/10 03:06:04;;;;;;;11.68;4.32;;;;;;;11.60;100.00;100048.13;5124196;28;20550;-92
2023/05/10 03:08:45;;;;;;;13.57;4.55;;;;;;;11.79;100.00;100076.84;5123832;28;20039;-92
2023/05/10 03:11:47;;;;;;;14.48;4.22;;;;;;;11.57;100.00;100067.47;5104000;28;20051;-92
2023/05/10 03:14:28;;;;;;;13.20;4.50;;;;;;;11.81;100.00;100105.59;5121128;28;20059;-93
2023/05/10 03:17:20;;;;;;;8.57;3.03;;;;;;;11.70;100.00;100079.94;5123857;28;20035;-92
2023/05/10 03:20:07;;;;;;;21.92;4.78;;;;;;;11.59;100.00;100091.84;5119724;28;20272;-91
2023/05/10 03:22:53;;;;;;;10.05;3.17;;;;;;;11.49;100.00;100079.28;5122309;28;20556;-92
2023/05/10 03:25:31;;;;;;;9.32;2.78;;;;;;;11.53;100.00;100100.03;5110829;28;20040;-91
2023/05/10 03:28:14;;;;;;;10.70;2.65;;;;;;;11.36;100.00;100068.59;5112402;28;20043;-92
2023/05/10 03:30:56;;;;;;;15.23;3.03;;;;;;;11.23;100.00;100059.69;5123789;28;20138;-91
2023/05/10 03:33:23;;;;;;;15.52;3.95;;;;;;;11.30;100.00;100067.16;5123668;28;20081;-92
2023/05/10 03:35:51;;;;;;;11.18;3.42;;;;;;;11.46;100.00;100063.75;5124908;28;20055;-92
2023/05/10 03:38:31;;;;;;;13.13;3.35;;;;;;;11.30;100.00;100040.94;5125735;28;20043;-93
2023/05/10 03:41:04;;;;;;;11.25;3.28;;;;;;;11.33;100.00;100061.75;5124707;28;20104;-93
2023/05/10 03:43:45;;;;;;;9.13;3.28;;;;;;;11.48;100.00;100077.63;5125692;28;20100;-94
2023/05/10 03:46:25;;;;;;;15.10;3.05;;;;;;;11.72;100.00;100096.44;5113449;28;20055;-92
2023/05/10 03:49:06;;;;;;;12.82;3.90;;;;;;;11.56;100.00;100078.91;5120133;28;20159;-92
2023/05/10 03:51:47;;;;;;;8.52;2.95;;;;;;;11.32;100.00;100080.19;5143355;27;20043;-92
2023/05/10 03:54:27;;;;;;;11.52;3.45;;;;;;;11.12;100.00;100037.50;5128058;28;20100;-91
2023/05/10 03:57:08;;;;;;;11.43;3.58;;;;;;;11.28;100.00;100100.47;5116141;28;20044;-92
2023/05/10 03:59:48;;;;;;;9.00;3.15;;;;;;;11.42;100.00;100089.28;5129907;28;20144;-93
2023/05/10 04:02:30;;;;;;;9.13;3.25;;;;;;;11.21;100.00;100067.63;5128612;28;20043;-92
2023/05/10 04:05:10;;;;;;;9.95;3.90;;;;;;;11.22;100.00;100064.06;5114615;28;20121;-93
2023/05/10 04:07:51;;;;;;;10.77;3.08;;;;;;;10.83;100.00;100031.94;5129576;28;20097;-92
2023/05/10 04:10:32;;;;;;;10.30;3.60;;;;;;;11.19;100.00;100093.91;5130143;28;20134;-93
2023/05/10 04:13:13;;;;;;;11.68;3.55;;;;;;;11.27;100.00;100087.44;5129371;28;20248;-93
2023/05/10 04:15:53;;;;;;;8.98;3.53;;;;;;;11.31;100.00;100071.44;5096048;28;20052;-94
2023/05/10 04:18:34;;;;;;;20.80;4.32;;;;;;;11.16;100.00;100091.44;5110395;28;20095;-93
2023/05/10 04:21:15;;;;;;;13.23;3.88;;;;;;;11.05;100.00;100105.97;5119893;28;20053;-94
2023/05/10 04:23:55;;;;;;;8.40;2.70;;;;;;;11.09;100.00;100105.75;5128384;28;20097;-93
2023/05/10 04:26:36;;;;;;;16.58;3.70;;;;;;;10.89;100.00;100108.50;5110341;28;20040;-93
2023/05/10 04:29:17;;;;;;;10.48;2.70;;;;;;;10.74;100.00;100073.44;5128791;28;20051;-91
2023/05/10 04:31:57;;;;;;;6.35;2.03;;;;;;;10.67;100.00;100056.34;5130299;28;20044;-92
2023/05/10 04:34:38;;;;;;;18.05;3.25;;;;;;;10.50;100.00;100073.72;5128285;28;20050;-93
2023/05/10 04:37:19;;;;;;;9.98;2.33;;;;;;;10.59;100.00;100085.53;5129412;28;20489;-92
2023/05/10 04:40:00;;;;;;;15.60;2.95;;;;;;;10.49;100.00;100079.88;5124654;28;20112;-94
2023/05/10 04:42:41;;;;;;;10.00;2.90;;;;;;;10.61;100.00;100110.69;5125726;28;20059;-92
2023/05/10 04:45:22;;;;;;;5.47;1.75;;;;;;;10.66;100.00;100083.44;5130273;28;20040;-93
2023/05/10 04:48:02;;;;;;;11.82;2.63;;;;;;;10.57;100.00;100066.41;5122479;28;20108;-93
2023/05/10 04:50:43;;;;;;;11.93;3.20;;;;;;;10.42;100.00;100060.16;5132809;28;20582;-93
2023/05/10 04:53:24;;;;;;;6.25;1.92;;;;;;;10.48;100.00;100087.78;5130467;28;20073;-94
2023/05/10 04:56:05;;;;;;;7.15;2.15;;;;;;;10.67;100.00;100086.00;5129451;28;20115;-94
2023/05/10 04:58:46;;;;;;;6.60;1.52;;;;;;;10.74;100.00;100090.00;5130638;28;20040;-94
2023/05/10 05:01:26;;;;;;;6.75;2.10;;;;;;;10.74;100.00;100091.78;5124958;28;20051;-93
2023/05/10 05:04:07;;;;;;;6.05;2.22;;;;;;;10.80;100.00;100086.22;5129469;28;20067;-93
2023/05/10 05:06:47;;;;;;;6.22;2.38;;;;;;;10.57;100.00;100088.22;5123779;28;20044;-92
2023/05/10 05:09:28;;;;;;;9.25;2.33;;;;;;;10.61;100.00;100113.31;5115173;28;20036;-93
2023/05/10 05:12:13;;;;;;;8.07;2.10;;;;;;;10.75;100.00;100114.44;5116914;28;20035;-93
2023/05/10 05:14:54;;;;;;;6.93;1.95;;;;;;;10.72;100.00;100091.00;5128931;28;20057;-93
2023/05/10 05:17:23;;;;;;;8.73;1.95;;;;;;;10.38;100.00;100048.13;5129618;28;20066;-93
2023/05/10 05:19:51;;;;;;;6.28;2.00;;;;;;;11.01;100.00;100144.56;5128308;28;20056;-92
2023/05/10 05:22:27;;;;;;;4.68;1.75;;;;;;;10.70;100.00;100114.66;5127384;28;20055;-93
2023/05/10 05:24:56;;;;;;;6.38;1.83;;;;;;;10.61;100.00;100074.03;5127245;28;20060;-92
2023/05/10 05:27:25;;;;;;;11.75;2.20;;;;;;;10.73;100.00;100118.88;5126769;28;20055;-93
2023/05/10 05:29:54;;;;;;;10.55;2.55;;;;;;;10.93;100.00;100116.16;5127310;28;20078;-93
2023/05/10 05:32:22;;;;;;;5.30;2.00;;;;;;;10.69;100.00;100094.63;5126114;28;20052;-93
2023/05/10 05:34:50;;;;;;;11.75;2.75;;;;;;;10.68;100.00;100097.28;5129499;28;20059;-94
2023/05/10 05:37:31;;;;;;;8.35;2.08;;;;;;;10.31;100.00;100036.25;5128148;28;20061;-94
2023/05/10 05:40:15;;;;;;;8.82;2.63;;;;;;;10.95;100.00;100100.38;5129843;28;20044;-95
2023/05/10 05:42:56;;;;;;;6.22;2.20;;;;;;;10.88;100.00;100102.44;5114769;28;20111;-93
2023/05/10 05:45:37;;;;;;;4.30;1.67;;;;;;;10.80;100.00;100079.25;5130642;28;20040;-94
2023/05/10 05:48:17;;;;;;;7.45;2.55;;;;;;;11.19;100.00;100100.91;5127318;28;20051;-94
2023/05/10 05:51:01;;;;;;;5.55;1.98;;;;;;;10.85;100.00;100071.16;5128505;28;20065;-93
2023/05/10 05:53:42;;;;;;;4.80;1.90;;;;;;;11.33;100.00;100121.16;5121767;28;20069;-91
2023/05/10 05:56:24;;;;;;;6.55;2.70;;;;;;;11.10;100.00;100077.78;5125037;28;20047;-93
2023/05/10 05:59:05;;;;;;;9.23;2.95;;;;;;;11.24;100.00;100092.81;5115884;28;20091;-89
2023/05/10 06:01:34;;;;;;;7.95;2.78;;;;;;;11.04;100.00;100092.03;5125310;27;20109;-91
2023/05/10 06:04:15;;;;;;;6.93;2.45;;;;;;;10.85;100.00;100094.72;5112483;28;20043;-92
2023/05/10 06:06:42;;;;;;;7.85;2.95;;;;;;;10.84;100.00;100124.47;5124194;28;20044;-92
2023/05/10 06:09:12;;;;;;;7.60;3.28;;;;;;;10.77;100.00;100073.31;5119202;27;20116;-92
2023/05/10 06:11:53;;;;;;;8.13;2.92;;;;;;;11.04;100.00;100094.66;5125547;27;20587;-91
2023/05/10 06:14:33;;;;;;;14.02;4.25;;;;;;;10.80;100.00;100071.38;5126567;27;20051;-90
2023/05/10 06:17:03;;;;;;;10.35;4.40;;;;;;;10.86;100.00;100093.81;5118893;28;20084;-91
2023/05/10 06:19:44;;;;;;;16.25;4.38;;;;;;;11.09;100.00;100100.53;5121862;28;20481;-93
2023/05/10 06:22:24;;;;;;;9.20;3.17;;;;;;;10.98;100.00;100087.13;5120270;28;20036;-93
2023/05/10 06:25:06;;;;;;;12.98;4.65;;;;;;;10.73;100.00;100103.16;5118615;28;20051;-92
2023/05/10 06:27:46;;;;;;;7.80;3.05;;;;;;;10.85;100.00;100094.72;5106310;28;20078;-92
2023/05/10 06:30:28;;;;;;;12.45;4.72;;;;;;;11.07;100.00;100096.31;5126713;28;20050;-92
2023/05/10 06:33:08;;;;;;;9.90;3.50;;;;;;;11.02;100.00;100113.06;5128292;27;20051;-93
2023/05/10 06:35:49;;;;;;;14.73;4.03;;;;;;;10.92;100.00;100110.97;5125722;28;20050;-93
2023/05/10 06:38:30;;;;;;;9.38;3.67;;;;;;;10.78;100.00;100098.56;5119865;28;20048;-92
2023/05/10 06:41:10;;;;;;;9.77;3.47;;;;;;;11.17;100.00;100118.47;5111898;28;20120;-92
2023/05/10 06:43:51;;;;;;;10.50;3.88;;;;;;;11.09;100.00;100097.06;5126705;28;20032;-94
2023/05/10 06:46:32;;;;;;;16.23;4.05;;;;;;;10.81;100.00;100087.94;5116201;28;20099;-91
2023/05/10 06:49:12;;;;;;;8.75;3.20;;;;;;;10.91;100.00;100123.25;5126466;28;20091;-92
2023/05/10 06:51:53;;;;;;;12.38;3.78;;;;;;;10.90;100.00;100129.38;5117684;28;20043;-92
2023/05/10 06:54:33;;;;;;;16.30;4.32;;;;;;;10.66;100.00;100122.72;5127095;28;20047;-93
2023/05/10 06:57:14;;;;;;;8.93;3.40;;;;;;;10.73;100.00;100095.31;5126991;28;20069;-92
2023/05/10 06:59:56;;;;;;;8.70;3.15;;;;;;;10.55;100.00;100092.69;5126609;28;20047;-91
2023/05/10 07:02:36;;;;;;;9.88;3.58;;;;;;;10.80;100.00;100094.09;5121290;28;20048;-91
2023/05/10 07:05:17;;;;;;;14.00;3.95;;;;;;;10.78;100.00;100132.59;5114987;28;20063;-93
2023/05/10 07:07:58;;;;;;;18.30;4.32;;;;;;;10.57;100.00;100111.78;5126736;28;20055;-93
2023/05/10 07:10:38;;;;;;;9.80;4.18;;;;;;;10.55;100.00;100113.63;5125820;28;20103;-93
2023/05/10 07:13:19;;;;;;;6.53;2.55;;;;;;;10.81;100.00;100133.28;5114288;28;20043;-91
2023/05/10 07:16:01;;;;;;;6.75;2.67;;;;;;;10.48;100.00;100106.13;5128002;28;20087;-92
2023/05/10 07:18:42;;;;;;;8.38;2.90;;;;;;;11.09;100.00;100133.75;5122617;28;20096;-90
2023/05/10 07:21:09;;;;;;;6.10;2.22;;;;;;;11.26;100.00;100136.38;5125628;28;20048;-90
2023/05/10 07:23:37;;;;;;;8.38;2.90;;;;;;;11.17;100.00;100128.94;5121048;28;20127;-91
2023/05/10 07:26:18;;;;;;;10.48;3.65;;;;;;;10.86;100.00;100140.94;5120254;28;20047;-92
2023/05/10 07:28:46;;;;;;;8.52;2.55;;;;;;;11.03;100.00;100153.25;5126246;28;20048;-91
2023/05/10 07:31:13;;;;;;;7.25;2.83;;;;;;;10.85;100.00;100117.44;5126550;28;20071;-91
2023/05/10 07:33:40;;;;;;;6.22;2.38;;;;;;;10.76;100.00;100085.53;5123356;28;20056;-92
2023/05/10 07:36:08;;;;;;;10.07;3.78;;;;;;;10.87;100.00;100102.50;5127117;28;20035;-92
2023/05/10 07:38:37;;;;;;;8.07;2.65;;;;;;;11.00;100.00;100106.22;5127565;28;20496;-91
2023/05/10 07:41:06;;;;;;;7.70;2.47;;;;;;;10.72;100.00;100094.47;5127674;28;20040;-90
2023/05/10 07:43:34;;;;;;;9.48;3.00;;;;;;;10.57;100.00;100053.31;5125198;28;20130;-90
2023/05/10 07:46:01;;;;;;;9.07;2.67;;;;;;;10.66;100.00;100046.78;5126644;28;20051;-89
2023/05/10 07:48:28;;;;;;;7.45;2.58;;;;;;;10.95;100.00;100131.78;5124196;28;20075;-90
2023/05/10 07:50:57;;;;;;;15.00;3.88;;;;;;;10.90;100.00;100126.78;5107054;28;20139;-90
2023/05/10 07:53:27;;;;;;;10.68;3.30;;;;;;;10.79;100.00;100118.59;5126496;28;20051;-92
2023/05/10 07:55:59;;;;;;;11.88;3.72;;;;;;;10.70;100.00;100109.41;5122971;28;20067;-91
2023/05/10 07:58:40;;;;;;;7.20;2.47;;;;;;;10.51;100.00;100100.75;5115166;28;20044;-90
2023/05/10 08:01:07;;;;;;;9.45;2.72;;;;;;;10.63;100.00;100116.69;5127626;28;20063;-91
2023/05/10 08:03:38;;;;;;;8.40;2.83;;;;;;;10.43;100.00;100074.94;5118400;28;20066;-91
2023/05/10 08:06:05;;;;;;;14.32;2.80;;;;;;;10.50;100.00;100104.25;5119386;28;20052;-91
2023/05/10 08:08:33;;;;;;;8.25;3.15;;;;;;;10.59;100.00;100090.75;5120895;28;20048;-91
2023/05/10 08:11:03;;;;;;;9.40;3.42;;;;;;;10.46;100.00;100043.38;5117827;28;20602;-89
2023/05/10 08:13:31;;;;;;;7.65;2.50;;;;;;;11.14;100.00;100118.66;5119950;28;20051;-89
2023/05/10 08:15:59;;;;;;;10.07;3.60;;;;;;;10.84;100.00;100098.28;5105670;28;20051;-90
2023/05/10 08:18:26;;;;;;;11.60;4.00;;;;;;;10.60;100.00;100116.00;5109029;28;20447;-90
2023/05/10 08:20:54;;;;;;;4.78;2.00;;;;;;;10.91;100.00;100119.78;5126015;28;20059;-91
2023/05/10 08:23:21;;;;;;;9.73;2.80;;;;;;;11.00;100.00;100104.44;5121491;28;20050;-91
2023/05/10 08:25:48;;;;;;;7.35;2.70;;;;;;;11.11;100.00;100113.56;5122971;28;20139;-91
2023/05/10 08:28:16;;;;;;;7.38;2.97;;;;;;;10.81;100.00;100094.00;5116240;28;20048;-91
2023/05/10 08:30:47;;;;;;;21.10;5.20;;;;;;;10.67;100.00;100070.28;5125603;28;20062;-91
2023/05/10 08:33:15;;;;;;;8.10;3.28;;;;;;;11.37;100.00;100105.22;5104747;28;20044;-88
2023/05/10 08:35:43;;;;;;;9.00;3.45;;;;;;;11.36;100.00;100102.69;5124258;28;20077;-92
2023/05/10 08:38:11;;;;;;;7.75;2.53;;;;;;;11.34;100.00;100107.16;5112855;28;20111;-91
2023/05/10 08:40:42;;;;;;;7.97;3.22;;;;;;;11.48;100.00;100135.28;5126278;27;20056;-91
2023/05/10 08:43:12;;;;;;;13.18;4.22;;;;;;;11.09;100.00;100078.72;5107693;28;20108;-92
2023/05/10 08:45:53;;;;;;;6.97;2.65;;;;;;;11.61;100.00;100143.38;5120250;28;20035;-91
2023/05/10 08:48:24;;;;;;;11.25;4.25;;;;;;;11.33;100.00;100135.16;5125357;28;20114;-91
2023/05/10 08:50:56;;;;;;;9.02;3.20;;;;;;;11.49;100.00;100139.59;5124889;28;20049;-91
2023/05/10 08:53:26;;;;;;;10.30;3.40;;;;;;;11.35;100.00;100104.47;5124859;28;20112;-91
2023/05/10 08:55:54;;;;;;;12.60;3.95;;;;;;;11.11;100.00;100109.16;5125322;28;20451;-91
2023/05/10 08:58:21;;;;;;;14.27;4.40;;;;;;;11.42;100.00;100107.63;5124569;28;20047;-92
2023/05/10 09:00:50;;;;;;;8.70;3.80;;;;;;;11.72;100.00;100109.56;5126064;28;20075;-91
2023/05/10 09:03:26;;;;;;;8.27;2.92;;;;;;;11.83;100.00;100115.09;5119516;28;20047;-89
2023/05/10 09:05:55;;;;;;;7.07;3.08;;;;;;;12.08;100.00;100122.56;5117510;28;20078;-90
2023/05/10 09:08:27;;;;;;;7.40;2.97;;;;;;;11.91;100.00;100099.81;5124920;27;20051;-91
2023/05/10 09:10:57;;;;;;;8.23;3.78;;;;;;;12.07;100.00;100117.38;5113277;28;20424;-91
2023/05/10 09:13:24;;;;;;;9.18;2.92;;;;;;;11.84;100.00;100143.00;5121119;28;20071;-91
2023/05/10 09:15:53;;;;;;;8.55;3.95;;;;;;;11.74;100.00;100137.41;5124801;28;20062;-91
2023/05/10 09:18:20;;;;;;;7.55;2.97;;;;;;;11.70;100.00;100125.38;5124629;28;20079;-91
2023/05/10 09:20:54;;;;;;;8.48;2.72;;;;;;;11.93;100.00;100099.75;5124064;28;20047;-90
2023/05/10 09:23:21;;;;;;;8.43;2.97;;;;;;;11.70;100.00;100083.41;5121402;28;20048;-91
2023/05/10 09:26:03;;;;;;;8.95;3.80;;;;;;;11.80;100.00;100091.66;5123679;28;20048;-91
2023/05/10 09:28:34;;;;;;;8.52;3.55;;;;;;;11.77;100.00;100126.78;5123134;28;20051;-92
2023/05/10 09:31:01;;;;;;;7.93;3.25;;;;;;;12.04;100.00;100102.66;5119993;28;20068;-92
2023/05/10 09:33:28;;;;;;;7.63;2.72;;;;;;;11.97;100.00;100106.53;5110761;28;20070;-91
2023/05/10 09:36:07;;;;;;;6.05;2.10;;;;;;;12.27;100.00;100116.28;5120896;28;20051;-91
2023/05/10 09:38:50;;;;;;;6.63;2.63;;;;;;;12.48;100.00;100115.13;5123363;28;20100;-91
2023/05/10 09:41:20;;;;;;;9.00;3.90;;;;;;;11.76;100.00;100029.81;5119538;28;20060;-90
2023/05/10 09:43:56;;;;;;;7.70;3.13;;;;;;;11.32;100.00;99984.06;5115285;28;20070;-90
2023/05/10 09:46:24;;;;;;;6.43;2.70;;;;;;;12.25;100.00;100105.91;5123574;28;20043;-91
2023/05/10 09:48:52;;;;;;;10.07;3.78;;;;;;;12.45;100.00;100117.94;5124462;28;20489;-91
2023/05/10 09:51:24;;;;;;;7.32;2.92;;;;;;;11.78;100.00;100014.84;5122732;28;20071;-92
2023/05/10 09:54:14;;;;;;;8.18;2.97;;;;;;;13.14;100.00;100134.19;5119026;28;20077;-91
2023/05/10 09:56:42;;;;;;;7.07;2.78;;;;;;;13.11;100.00;100122.06;5109638;28;20541;-91
2023/05/10 09:59:11;;;;;;;8.70;3.08;;;;;;;12.92;100.00;100084.63;5110113;28;20055;-90
2023/05/10 10:01:38;;;;;;;7.15;2.65;;;;;;;13.02;100.00;100113.88;5120743;28;20055;-92
2023/05/10 10:04:09;;;;;;;7.28;2.63;;;;;;;12.96;100.00;100054.66;5121651;28;20142;-90
2023/05/10 10:06:38;;;;;;;8.05;3.08;;;;;;;12.94;100.00;100072.25;5124396;28;20079;-92
2023/05/10 10:09:06;;;;;;;9.90;4.10;;;;;;;12.57;100.00;100032.38;5120657;28;20496;-90
2023/05/10 10:11:38;;;;;;;10.65;3.05;;;;;;;12.68;100.00;100043.09;5121077;28;20056;-90
2023/05/10 10:14:06;;;;;;;6.45;2.45;;;;;;;13.14;100.00;100086.88;5121932;28;20062;-91
2023/05/10 10:16:33;;;;;;;8.32;3.35;;;;;;;13.43;100.00;100129.03;5107209;28;20104;-90
2023/05/10 10:19:01;;;;;;;7.28;2.83;;;;;;;12.61;100.00;100046.19;5122378;28;20066;-90
2023/05/10 10:21:28;;;;;;;8.75;2.90;;;;;;;13.41;100.00;100081.78;5122737;28;20051;-91
2023/05/10 10:23:55;;;;;;;8.00;3.33;;;;;;;12.88;100.00;100046.34;5115498;28;20052;-91
2023/05/10 10:26:24;;;;;;;11.45;4.47;;;;;;;12.57;100.00;100082.28;5122265;28;20039;-91
2023/05/10 10:29:05;;;;;;;9.25;3.55;;;;;;;12.37;100.00;99969.63;5121736;28;20134;-92
2023/05/10 10:31:47;;;;;;;7.53;3.03;;;;;;;12.73;100.00;100014.78;5122393;28;20103;-92
2023/05/10 10:34:28;;;;;;;11.05;3.67;;;;;;;13.27;100.00;100058.91;5121079;28;20053;-92
2023/05/10 10:36:57;;;;;;;8.98;3.05;;;;;;;13.35;100.00;100102.34;5123584;28;20404;-91
2023/05/10 10:39:27;;;;;;;8.48;3.47;;;;;;;13.55;100.00;100109.06;5123433;28;20131;-91
2023/05/10 10:41:56;;;;;;;8.63;3.22;;;;;;;13.44;100.00;100126.31;5123484;28;20063;-92
2023/05/10 10:44:39;;;;;;;8.80;3.38;;;;;;;13.49;100.00;100102.38;5121742;28;20119;-91
2023/05/10 10:47:14;;;;;;;8.38;3.08;;;;;;;13.85;100.00;100130.03;5123730;28;20035;-92
2023/05/10 10:49:41;;;;;;;7.65;2.72;;;;;;;13.80;100.00;100119.78;5122333;28;20472;-92
2023/05/10 10:52:22;;;;;;;11.32;3.90;;;;;;;14.06;100.00;100130.50;5111664;28;20473;-92
2023/05/10 10:54:51;;;;;;;8.55;3.00;;;;;;;13.93;100.00;100113.78;5124173;28;20058;-90
2023/05/10 10:57:21;;;;;;;8.57;2.92;;;;;;;13.65;100.00;100100.53;5126538;28;20055;-91
2023/05/10 10:59:49;;;;;;;7.45;3.08;;;;;;;13.72;100.00;100113.28;5126140;28;20043;-91
2023/05/10 11:02:45;;;;;;;7.07;2.60;;;;;;;13.45;100.00;100085.94;5126707;28;20044;-92
2023/05/10 11:05:48;;;;;;;9.98;3.55;;;;;;;13.65;100.00;100120.69;5114466;28;20105;-91
2023/05/10 11:08:45;;;;;;;8.60;3.65;;;;;;;14.04;100.00;100092.88;5077794;28;20047;-91
2023/05/10 11:11:14;;;;;;;9.80;3.22;;;;;;;14.26;100.00;100117.91;5091633;28;20054;-91
2023/05/10 11:13:44;;;;;;;8.05;3.38;;;;;;;13.84;100.00;100052.03;5117033;28;20054;-91
2023/05/10 11:16:20;;;;;;;6.50;2.53;;;;;;;14.09;100.00;100118.94;5127637;28;20074;-92
2023/05/10 11:19:03;;;;;;;10.80;3.80;;;;;;;13.29;100.00;100049.16;5107708;28;20070;-92
2023/05/10 11:21:32;;;;;;;9.20;4.10;;;;;;;12.96;100.00;100088.81;5106408;28;20063;-92
2023/05/10 11:24:05;;;;;;;7.78;3.30;;;;;;;13.04;100.00;100075.22;5110610;28;20051;-91
2023/05/10 11:26:37;;;;;;;9.23;3.67;;;;;;;13.09;100.00;100075.78;5117491;28;20062;-90
2023/05/10 11:29:04;;;;;;;9.98;4.00;;;;;;;13.22;100.00;100055.72;5125769;28;20055;-91
2023/05/10 11:31:46;;;;;;;8.73;3.78;;;;;;;13.31;100.00;100083.28;5125731;28;20453;-92
2023/05/10 11:34:29;;;;;;;9.07;3.28;;;;;;;13.24;100.00;100058.25;5122818;28;20105;-91
2023/05/10 11:37:05;;;;;;;11.02;4.28;;;;;;;13.17;100.00;100078.78;5106341;28;20040;-91
2023/05/10 11:39:33;;;;;;;9.90;4.00;;;;;;;13.20;100.00;100041.00;5125523;28;20400;-91
2023/05/10 11:42:00;;;;;;;7.60;3.20;;;;;;;13.17;100.00;99943.91;5125665;28;20073;-90
2023/05/10 11:44:31;;;;;;;8.77;3.92;;;;;;;14.33;100.00;100091.06;5124034;28;20054;-91
2023/05/10 11:47:00;;;;;;;11.15;4.30;;;;;;;13.48;100.00;100051.56;5125069;28;20055;-91
2023/05/10 11:49:29;;;;;;;10.75;5.47;;;;;;;13.33;100.00;100043.75;5108805;28;20062;-90
2023/05/10 11:52:07;;;;;;;12.27;5.55;;;;;;;13.75;100.00;100118.38;5103906;28;20189;-90
2023/05/10 11:54:35;;;;;;;10.40;5.03;;;;;;;12.87;100.00;99943.06;5120733;28;20451;-90